Time,TemperatureF,DewpointF,PressureIn,WindDirection,WindDirectionDegrees,WindSpeedMPH,WindSpeedGustMPH,Humidity,HourlyPrecipIn,Conditions,Clouds,dailyrainin,SolarRadiationWatts/m^2,SoftwareType,DateUTC
2013-02-10 00:01:00,46.6,33.8,30.03,West,272,4.0,7.0,61,0.00,,,0.00,0.0,meteohub,2013-02-10 08:01:00,
2013-02-10 00:06:00,46.4,35.6,30.02,West,277,2.0,7.0,66,0.00,,,0.00,0.0,meteohub,2013-02-10 08:06:00,
2013-02-10 00:11:00,46.2,37.0,30.02,WNW,292,3.0,7.0,70,0.00,,,0.00,0.0,meteohub,2013-02-10 08:11:00,
2013-02-10 00:16:00,46.2,37.8,30.03,WNW,285,4.0,6.0,72,0.00,,,0.00,0.0,meteohub,2013-02-10 08:16:00,
2013-02-10 00:21:00,46.0,38.3,30.03,WNW,302,3.0,6.0,74,0.00,,,0.00,0.0,meteohub,2013-02-10 08:21:00,
2013-02-10 00:26:00,46.0,38.5,30.03,WNW,290,3.0,6.0,75,0.00,,,0.00,0.0,meteohub,2013-02-10 08:26:00,
2013-02-10 00:31:00,46.0,39.2,30.03,West,278,3.0,6.0,77,0.00,,,0.00,0.0,meteohub,2013-02-10 08:31:00,
2013-02-10 00:36:00,46.0,39.2,30.03,WNW,284,2.0,6.0,77,0.00,,,0.00,0.0,meteohub,2013-02-10 08:36:00,
2013-02-10 00:41:00,45.9,39.4,30.03,West,269,1.0,6.0,78,0.00,,,0.00,0.0,meteohub,2013-02-10 08:41:00,
2013-02-10 00:46:00,45.3,39.6,30.03,West,277,0.0,5.0,80,0.00,,,0.00,0.0,meteohub,2013-02-10 08:46:00,
2013-02-10 00:51:00,45.1,39.7,30.03,West,261,3.0,4.0,81,0.00,,,0.00,0.0,meteohub,2013-02-10 08:51:00,
2013-02-10 00:56:00,45.0,39.6,30.03,WSW,241,0.0,3.0,81,0.00,,,0.00,0.0,meteohub,2013-02-10 08:56:00,
2013-02-10 01:01:00,44.6,38.8,30.03,WSW,241,0.0,3.0,80,0.00,,,0.00,0.0,meteohub,2013-02-10 09:01:00,
2013-02-10 01:06:00,44.6,39.2,30.03,West,273,1.0,3.0,81,0.00,,,0.00,0.0,meteohub,2013-02-10 09:06:00,
2013-02-10 01:11:00,44.1,38.3,30.03,West,273,0.0,2.0,80,0.00,,,0.00,0.0,meteohub,2013-02-10 09:11:00,
2013-02-10 01:16:00,43.5,37.0,30.03,West,273,0.0,2.0,78,0.00,,,0.00,0.0,meteohub,2013-02-10 09:16:00,
2013-02-10 01:21:00,43.2,37.4,30.03,NNW,336,0.0,2.0,80,0.00,,,0.00,0.0,meteohub,2013-02-10 09:21:00,
2013-02-10 01:26:00,43.3,37.9,30.03,NNW,336,0.0,2.0,81,0.00,,,0.00,0.0,meteohub,2013-02-10 09:26:00,
2013-02-10 01:31:00,43.9,38.1,30.03,NNW,336,0.0,2.0,80,0.00,,,0.00,0.0,meteohub,2013-02-10 09:31:00,
2013-02-10 01:36:00,44.4,38.3,30.03,NNW,336,0.0,1.0,79,0.00,,,0.00,0.0,meteohub,2013-02-10 09:36:00,
2013-02-10 01:41:00,44.8,37.9,30.03,WNW,300,0.0,2.0,77,0.00,,,0.00,0.0,meteohub,2013-02-10 09:41:00,
2013-02-10 01:46:00,45.0,38.1,30.03,WNW,300,0.0,2.0,77,0.00,,,0.00,0.0,meteohub,2013-02-10 09:46:00,
2013-02-10 01:51:00,45.0,37.9,30.03,WNW,300,1.0,2.0,76,0.00,,,0.00,0.0,meteohub,2013-02-10 09:51:00,
2013-02-10 01:56:00,45.0,38.1,30.03,WNW,300,0.0,2.0,77,0.00,,,0.00,0.0,meteohub,2013-02-10 09:56:00,
2013-02-10 02:01:00,45.0,38.5,30.03,WNW,300,0.0,2.0,78,0.00,,,0.00,0.0,meteohub,2013-02-10 10:01:00,
2013-02-10 02:06:00,44.4,38.3,30.03,WNW,300,0.0,2.0,79,0.00,,,0.00,0.0,meteohub,2013-02-10 10:06:00,
2013-02-10 02:11:00,44.4,38.7,30.03,WNW,300,0.0,2.0,80,0.00,,,0.00,0.0,meteohub,2013-02-10 10:11:00,
2013-02-10 02:16:00,44.6,38.8,30.03,WNW,300,1.0,2.0,80,0.00,,,0.00,0.0,meteohub,2013-02-10 10:16:00,
2013-02-10 02:21:00,44.8,39.0,30.03,WNW,300,1.0,2.0,80,0.00,,,0.00,0.0,meteohub,2013-02-10 10:21:00,
2013-02-10 02:26:00,45.0,39.6,30.03,WNW,300,0.0,2.0,81,0.00,,,0.00,0.0,meteohub,2013-02-10 10:26:00,
2013-02-10 02:31:00,44.8,39.6,30.03,WNW,300,0.0,2.0,82,0.00,,,0.00,0.0,meteohub,2013-02-10 10:31:00,
2013-02-10 02:36:00,44.4,39.2,30.03,WNW,300,0.0,2.0,82,0.00,,,0.00,0.0,meteohub,2013-02-10 10:36:00,
2013-02-10 02:41:00,44.4,39.6,30.03,WNW,300,0.0,2.0,83,0.00,,,0.00,0.0,meteohub,2013-02-10 10:41:00,
2013-02-10 02:46:00,44.2,39.7,30.03,WNW,300,0.0,1.0,84,0.00,,,0.00,0.0,meteohub,2013-02-10 10:46:00,
2013-02-10 02:51:00,44.1,39.9,30.03,WNW,300,0.0,0.0,85,0.00,,,0.00,0.0,meteohub,2013-02-10 10:51:00,
2013-02-10 02:56:00,44.1,39.6,30.03,WNW,300,0.0,1.0,84,0.00,,,0.00,0.0,meteohub,2013-02-10 10:56:00,
2013-02-10 03:01:00,44.1,39.9,30.03,WNW,300,0.0,1.0,85,0.00,,,0.00,0.0,meteohub,2013-02-10 11:01:00,
2013-02-10 03:06:00,43.9,39.7,30.03,WNW,300,0.0,1.0,85,0.00,,,0.00,0.0,meteohub,2013-02-10 11:06:00,
2013-02-10 03:11:00,43.5,39.6,30.03,WNW,300,0.0,1.0,86,0.00,,,0.00,0.0,meteohub,2013-02-10 11:11:00,
2013-02-10 03:16:00,43.5,40.3,30.03,WNW,300,1.0,1.0,88,0.00,,,0.00,0.0,meteohub,2013-02-10 11:16:00,
2013-02-10 03:21:00,43.5,40.3,30.02,WNW,300,0.0,1.0,88,0.00,,,0.00,0.0,meteohub,2013-02-10 11:21:00,
2013-02-10 03:26:00,44.1,40.8,30.02,WNW,300,0.0,1.0,88,0.00,,,0.00,0.0,meteohub,2013-02-10 11:26:00,
2013-02-10 03:31:00,43.9,40.6,30.02,WNW,300,0.0,2.0,88,0.00,,,0.00,0.0,meteohub,2013-02-10 11:31:00,
2013-02-10 03:36:00,43.9,40.6,30.02,WNW,300,0.0,2.0,88,0.00,,,0.00,0.0,meteohub,2013-02-10 11:36:00,
2013-02-10 03:41:00,43.5,40.5,30.02,WNW,300,0.0,1.0,89,0.00,,,0.00,0.0,meteohub,2013-02-10 11:41:00,
2013-02-10 03:46:00,43.3,40.3,30.02,WNW,300,0.0,0.0,89,0.00,,,0.00,0.0,meteohub,2013-02-10 11:46:00,
2013-02-10 03:52:00,43.3,40.6,30.02,WNW,300,0.0,0.0,90,0.00,,,0.00,0.0,meteohub,2013-02-10 11:52:00,
2013-02-10 03:56:00,43.2,40.1,30.02,WNW,300,0.0,0.0,89,0.00,,,0.00,0.0,meteohub,2013-02-10 11:56:00,
2013-02-10 04:01:00,43.2,40.1,30.02,WNW,300,0.0,1.0,89,0.00,,,0.00,0.0,meteohub,2013-02-10 12:01:00,
2013-02-10 04:06:00,43.0,39.9,30.02,WNW,300,0.0,1.0,89,0.00,,,0.00,0.0,meteohub,2013-02-10 12:06:00,
2013-02-10 04:11:00,43.5,40.3,30.02,WNW,300,0.0,1.0,88,0.00,,,0.00,0.0,meteohub,2013-02-10 12:11:00,
2013-02-10 04:16:00,43.3,39.7,30.02,WNW,300,0.0,2.0,87,0.00,,,0.00,0.0,meteohub,2013-02-10 12:16:00,
2013-02-10 04:21:00,43.3,40.1,30.02,WNW,300,0.0,2.0,88,0.00,,,0.00,0.0,meteohub,2013-02-10 12:21:00,
2013-02-10 04:26:00,43.5,40.3,30.02,WNW,300,0.0,2.0,88,0.00,,,0.00,0.0,meteohub,2013-02-10 12:26:00,
2013-02-10 04:31:00,43.9,40.6,30.02,WNW,300,0.0,0.0,88,0.00,,,0.00,0.0,meteohub,2013-02-10 12:31:00,
2013-02-10 04:36:00,43.7,40.1,30.02,WNW,300,0.0,0.0,87,0.00,,,0.00,0.0,meteohub,2013-02-10 12:36:00,
2013-02-10 04:41:00,43.5,39.9,30.02,WNW,300,1.0,1.0,87,0.00,,,0.00,0.0,meteohub,2013-02-10 12:41:00,
2013-02-10 04:46:00,43.3,40.1,30.02,North,9,2.0,2.0,88,0.00,,,0.00,0.0,meteohub,2013-02-10 12:46:00,
2013-02-10 04:51:00,43.3,39.7,30.02,NNE,24,1.0,3.0,87,0.00,,,0.00,0.0,meteohub,2013-02-10 12:51:00,
2013-02-10 04:56:00,43.3,40.1,30.02,NNE,24,1.0,3.0,88,0.00,,,0.00,0.0,meteohub,2013-02-10 12:56:00,
2013-02-10 05:01:00,43.2,39.9,30.02,NNE,28,2.0,3.0,88,0.00,,,0.00,0.0,meteohub,2013-02-10 13:01:00,
2013-02-10 05:06:00,43.2,39.9,30.02,NNE,28,0.0,3.0,88,0.00,,,0.00,0.0,meteohub,2013-02-10 13:06:00,
2013-02-10 05:11:00,43.0,39.7,30.03,NNE,33,1.0,2.0,88,0.00,,,0.00,0.0,meteohub,2013-02-10 13:11:00,
2013-02-10 05:16:00,43.0,39.7,30.03,NE,45,0.0,2.0,88,0.00,,,0.00,0.0,meteohub,2013-02-10 13:16:00,
2013-02-10 05:21:00,43.0,39.7,30.03,NE,42,0.0,2.0,88,0.00,,,0.00,0.0,meteohub,2013-02-10 13:21:00,
2013-02-10 05:26:00,43.0,39.7,30.03,NE,40,1.0,2.0,88,0.00,,,0.00,0.0,meteohub,2013-02-10 13:26:00,
2013-02-10 05:31:00,43.0,39.7,30.02,NE,40,0.0,2.0,88,0.00,,,0.00,0.0,meteohub,2013-02-10 13:31:00,
2013-02-10 05:36:00,43.0,39.7,30.02,NE,40,1.0,2.0,88,0.00,,,0.00,0.0,meteohub,2013-02-10 13:36:00,
2013-02-10 05:41:00,43.0,39.7,30.03,NE,40,1.0,2.0,88,0.00,,,0.00,0.0,meteohub,2013-02-10 13:41:00,
2013-02-10 05:46:00,43.0,39.7,30.02,NNE,22,1.0,3.0,88,0.00,,,0.00,0.0,meteohub,2013-02-10 13:46:00,
2013-02-10 05:51:00,42.8,39.6,30.03,NNE,31,2.0,3.0,88,0.00,,,0.00,0.0,meteohub,2013-02-10 13:51:00,
2013-02-10 05:56:00,42.6,39.4,30.03,NNE,27,1.0,3.0,88,0.00,,,0.00,0.0,meteohub,2013-02-10 13:56:00,
2013-02-10 06:01:00,42.6,39.4,30.03,NNE,27,0.0,3.0,88,0.00,,,0.00,0.0,meteohub,2013-02-10 14:01:00,
2013-02-10 06:06:00,42.6,39.4,30.03,NNE,26,1.0,3.0,88,0.00,,,0.00,0.0,meteohub,2013-02-10 14:06:00,
2013-02-10 06:11:00,42.8,39.2,30.03,NNE,27,0.0,2.0,87,0.00,,,0.00,0.0,meteohub,2013-02-10 14:11:00,
2013-02-10 06:16:00,42.6,39.0,30.03,NNE,26,0.0,1.0,87,0.00,,,0.00,0.0,meteohub,2013-02-10 14:16:00,
2013-02-10 06:21:00,42.8,39.2,30.03,SE,134,0.0,1.0,87,0.00,,,0.00,0.0,meteohub,2013-02-10 14:21:00,
2013-02-10 06:26:00,43.0,39.4,30.04,SE,136,0.0,3.0,87,0.00,,,0.00,0.0,meteohub,2013-02-10 14:26:00,
2013-02-10 06:31:00,42.4,38.8,30.04,ESE,119,0.0,3.0,87,0.00,,,0.00,0.0,meteohub,2013-02-10 14:31:00,
2013-02-10 06:36:00,42.4,39.2,30.04,ESE,119,0.0,2.0,88,0.00,,,0.00,0.0,meteohub,2013-02-10 14:36:00,
2013-02-10 06:41:00,42.3,39.0,30.04,ENE,72,1.0,2.0,88,0.00,,,0.00,0.0,meteohub,2013-02-10 14:41:00,
2013-02-10 06:46:00,42.3,39.0,30.04,ENE,69,0.0,3.0,88,0.00,,,0.00,0.0,meteohub,2013-02-10 14:46:00,
2013-02-10 06:52:00,42.1,38.8,30.04,ENE,69,0.0,3.0,88,0.00,,,0.00,0.0,meteohub,2013-02-10 14:52:00,
2013-02-10 06:57:00,41.7,38.7,30.04,ENE,69,0.0,3.0,89,0.00,,,0.00,0.0,meteohub,2013-02-10 14:57:00,
2013-02-10 07:02:00,41.7,38.7,30.04,ENE,57,1.0,2.0,89,0.00,,,0.00,5.0,meteohub,2013-02-10 15:02:00,
2013-02-10 07:07:00,41.9,38.8,30.04,ENE,57,1.0,2.0,89,0.00,,,0.00,7.0,meteohub,2013-02-10 15:07:00,
2013-02-10 07:12:00,42.1,39.0,30.04,ENE,57,0.0,2.0,89,0.00,,,0.00,11.0,meteohub,2013-02-10 15:12:00,
2013-02-10 07:17:00,42.1,39.0,30.04,ENE,57,0.0,2.0,89,0.00,,,0.00,14.0,meteohub,2013-02-10 15:17:00,
2013-02-10 07:22:00,42.1,38.8,30.05,ENE,57,0.0,2.0,88,0.00,,,0.00,18.0,meteohub,2013-02-10 15:22:00,
2013-02-10 07:27:00,42.6,39.4,30.05,ENE,57,0.0,2.0,88,0.00,,,0.00,21.0,meteohub,2013-02-10 15:27:00,
2013-02-10 07:32:00,43.0,39.4,30.05,ENE,57,0.0,2.0,87,0.00,,,0.00,23.0,meteohub,2013-02-10 15:32:00,
2013-02-10 07:37:00,43.2,39.2,30.05,ENE,57,0.0,2.0,86,0.00,,,0.00,30.0,meteohub,2013-02-10 15:37:00,
2013-02-10 07:42:00,42.1,38.8,30.05,ENE,57,0.0,1.0,88,0.00,,,0.00,54.0,meteohub,2013-02-10 15:42:00,
2013-02-10 07:47:00,42.8,39.6,30.06,NE,55,2.0,2.0,88,0.00,,,0.00,79.0,meteohub,2013-02-10 15:47:00,
2013-02-10 07:52:00,43.3,39.4,30.05,ENE,60,2.0,3.0,86,0.00,,,0.00,98.0,meteohub,2013-02-10 15:52:00,
2013-02-10 07:57:00,43.9,39.7,30.05,ESE,117,1.0,3.0,85,0.00,,,0.00,118.0,meteohub,2013-02-10 15:57:00,
2013-02-10 08:02:00,44.1,39.6,30.06,ENE,59,1.0,3.0,84,0.00,,,0.00,137.0,meteohub,2013-02-10 16:02:00,
2013-02-10 08:07:00,44.1,39.2,30.06,NE,49,2.0,3.0,83,0.00,,,0.00,153.0,meteohub,2013-02-10 16:07:00,
2013-02-10 08:12:00,44.6,39.7,30.06,NE,50,0.0,4.0,83,0.00,,,0.00,174.0,meteohub,2013-02-10 16:12:00,
2013-02-10 08:17:00,45.1,40.3,30.06,ENE,75,0.0,4.0,83,0.00,,,0.00,193.0,meteohub,2013-02-10 16:17:00,
2013-02-10 08:22:00,45.7,40.5,30.06,ESE,105,2.0,4.0,82,0.00,,,0.00,211.0,meteohub,2013-02-10 16:22:00,
2013-02-10 08:27:00,45.5,40.3,30.06,SE,124,0.0,3.0,82,0.00,,,0.00,229.0,meteohub,2013-02-10 16:27:00,
2013-02-10 08:32:00,45.9,40.6,30.06,SSE,165,0.0,3.0,82,0.00,,,0.00,255.0,meteohub,2013-02-10 16:32:00,
2013-02-10 08:37:00,45.9,40.3,30.06,SSW,205,1.0,3.0,81,0.00,,,0.00,269.0,meteohub,2013-02-10 16:37:00,
2013-02-10 08:42:00,46.0,40.5,30.06,South,173,0.0,4.0,81,0.00,,,0.00,248.0,meteohub,2013-02-10 16:42:00,
2013-02-10 08:47:00,46.2,40.5,30.06,ESE,116,1.0,5.0,80,0.00,,,0.00,214.0,meteohub,2013-02-10 16:47:00,
2013-02-10 08:52:00,46.6,40.5,30.06,ESE,123,1.0,5.0,79,0.00,,,0.00,299.0,meteohub,2013-02-10 16:52:00,
2013-02-10 08:57:00,47.5,40.6,30.06,ESE,117,2.0,5.0,77,0.00,,,0.00,311.0,meteohub,2013-02-10 16:57:00,
2013-02-10 09:02:00,47.8,41.0,30.06,SE,139,1.0,3.0,77,0.00,,,0.00,265.0,meteohub,2013-02-10 17:02:00,
2013-02-10 09:07:00,47.7,40.5,30.06,SE,142,2.0,3.0,76,0.00,,,0.00,253.0,meteohub,2013-02-10 17:07:00,
2013-02-10 09:12:00,47.5,39.9,30.06,SE,139,0.0,3.0,75,0.00,,,0.00,297.0,meteohub,2013-02-10 17:12:00,
2013-02-10 09:17:00,47.1,39.9,30.05,East,94,0.0,3.0,76,0.00,,,0.00,380.0,meteohub,2013-02-10 17:17:00,
2013-02-10 09:22:00,48.2,39.9,30.05,ESE,117,0.0,2.0,73,0.00,,,0.00,385.0,meteohub,2013-02-10 17:22:00,
2013-02-10 09:27:00,48.9,40.3,30.05,ESE,105,1.0,4.0,72,0.00,,,0.00,383.0,meteohub,2013-02-10 17:27:00,
2013-02-10 09:32:00,48.2,40.3,30.05,East,80,1.0,4.0,74,0.00,,,0.00,406.0,meteohub,2013-02-10 17:32:00,
2013-02-10 09:37:00,50.0,39.9,30.05,ESE,110,1.0,4.0,68,0.00,,,0.00,431.0,meteohub,2013-02-10 17:37:00,
2013-02-10 09:42:00,50.2,41.5,30.05,SSE,165,1.0,4.0,72,0.00,,,0.00,422.0,meteohub,2013-02-10 17:42:00,
2013-02-10 09:47:00,51.1,39.7,30.05,ESE,115,2.0,4.0,65,0.00,,,0.00,452.0,meteohub,2013-02-10 17:47:00,
2013-02-10 09:52:00,51.4,40.5,30.05,SE,145,1.0,4.0,66,0.00,,,0.00,461.0,meteohub,2013-02-10 17:52:00,
2013-02-10 09:57:00,51.1,40.5,30.05,SSE,163,1.0,5.0,67,0.00,,,0.00,462.0,meteohub,2013-02-10 17:57:00,
2013-02-10 10:02:00,51.6,40.3,30.05,South,170,4.0,5.0,65,0.00,,,0.00,461.0,meteohub,2013-02-10 18:02:00,
2013-02-10 10:07:00,51.1,39.7,30.05,SW,216,3.0,5.0,65,0.00,,,0.00,482.0,meteohub,2013-02-10 18:07:00,
2013-02-10 10:12:00,50.7,39.7,30.05,SSE,157,3.0,6.0,66,0.00,,,0.00,501.0,meteohub,2013-02-10 18:12:00,
2013-02-10 10:17:00,52.0,41.0,30.05,South,170,1.0,6.0,66,0.00,,,0.00,513.0,meteohub,2013-02-10 18:17:00,
2013-02-10 10:22:00,51.3,39.6,30.05,ESE,113,2.0,5.0,64,0.00,,,0.00,457.0,meteohub,2013-02-10 18:22:00,
2013-02-10 10:27:00,51.6,39.4,30.05,ESE,102,0.0,5.0,63,0.00,,,0.00,450.0,meteohub,2013-02-10 18:27:00,
2013-02-10 10:32:00,51.1,39.4,30.05,South,180,2.0,5.0,64,0.00,,,0.00,390.0,meteohub,2013-02-10 18:32:00,
2013-02-10 10:37:00,51.4,40.8,30.05,ESE,119,2.0,5.0,67,0.00,,,0.00,378.0,meteohub,2013-02-10 18:37:00,
2013-02-10 10:42:00,51.4,40.5,30.05,South,183,3.0,6.0,66,0.00,,,0.00,520.0,meteohub,2013-02-10 18:42:00,
2013-02-10 10:47:00,52.5,40.6,30.05,SE,139,1.0,6.0,64,0.00,,,0.00,438.0,meteohub,2013-02-10 18:47:00,
2013-02-10 10:52:00,52.3,40.1,30.05,SE,130,1.0,6.0,63,0.00,,,0.00,527.0,meteohub,2013-02-10 18:52:00,
2013-02-10 10:57:00,52.3,40.1,30.05,SSE,155,0.0,5.0,63,0.00,,,0.00,540.0,meteohub,2013-02-10 18:57:00,
2013-02-10 11:02:00,53.2,40.1,30.05,East,81,0.0,5.0,61,0.00,,,0.00,568.0,meteohub,2013-02-10 19:02:00,
2013-02-10 11:07:00,52.9,38.1,30.04,East,96,1.0,5.0,57,0.00,,,0.00,592.0,meteohub,2013-02-10 19:07:00,
2013-02-10 11:12:00,52.5,40.3,30.04,East,100,3.0,4.0,63,0.00,,,0.00,584.0,meteohub,2013-02-10 19:12:00,
2013-02-10 11:17:00,53.2,40.6,30.04,SSE,155,2.0,4.0,62,0.00,,,0.00,613.0,meteohub,2013-02-10 19:17:00,
2013-02-10 11:22:00,53.6,40.1,30.04,SSE,152,4.0,5.0,60,0.00,,,0.00,613.0,meteohub,2013-02-10 19:22:00,
2013-02-10 11:27:00,53.8,37.6,30.04,SSE,168,4.0,5.0,54,0.00,,,0.00,619.0,meteohub,2013-02-10 19:27:00,
2013-02-10 11:33:00,54.1,37.4,30.03,ESE,112,1.0,6.0,53,0.00,,,0.00,626.0,meteohub,2013-02-10 19:33:00,
2013-02-10 11:38:00,54.7,36.9,30.04,South,189,3.0,6.0,51,0.00,,,0.00,631.0,meteohub,2013-02-10 19:38:00,
2013-02-10 11:43:00,55.2,36.3,30.03,SSW,209,2.0,6.0,49,0.00,,,0.00,636.0,meteohub,2013-02-10 19:43:00,
2013-02-10 11:48:00,55.8,35.8,30.03,SSE,161,2.0,6.0,47,0.00,,,0.00,638.0,meteohub,2013-02-10 19:48:00,
2013-02-10 11:53:00,56.7,36.7,30.03,NE,56,2.0,8.0,47,0.00,,,0.00,642.0,meteohub,2013-02-10 19:53:00,
2013-02-10 11:58:00,55.0,35.2,30.02,NNE,13,3.0,8.0,47,0.00,,,0.00,642.0,meteohub,2013-02-10 19:58:00,
2013-02-10 12:03:00,55.8,35.8,30.02,ENE,57,2.0,8.0,47,0.00,,,0.00,645.0,meteohub,2013-02-10 20:03:00,
2013-02-10 12:08:00,55.8,35.8,30.01,ESE,111,2.0,6.0,47,0.00,,,0.00,649.0,meteohub,2013-02-10 20:08:00,
2013-02-10 12:13:00,57.9,35.6,30.01,NNE,25,2.0,6.0,43,0.00,,,0.00,650.0,meteohub,2013-02-10 20:13:00,
2013-02-10 12:18:00,56.1,34.5,30.01,SE,124,2.0,7.0,44,0.00,,,0.00,650.0,meteohub,2013-02-10 20:18:00,
2013-02-10 12:23:00,57.6,35.2,30.00,NNE,32,4.0,7.0,43,0.00,,,0.00,654.0,meteohub,2013-02-10 20:23:00,
2013-02-10 12:28:00,57.4,35.1,30.00,South,174,2.0,7.0,43,0.00,,,0.00,654.0,meteohub,2013-02-10 20:28:00,
2013-02-10 12:33:00,57.7,35.4,29.99,ESE,121,7.0,7.0,43,0.00,,,0.00,652.0,meteohub,2013-02-10 20:33:00,
2013-02-10 12:38:00,57.6,34.0,29.99,ENE,69,5.0,9.0,41,0.00,,,0.00,652.0,meteohub,2013-02-10 20:38:00,
2013-02-10 12:43:00,56.8,33.4,29.99,NE,44,0.0,9.0,41,0.00,,,0.00,650.0,meteohub,2013-02-10 20:43:00,
2013-02-10 12:48:00,57.6,35.2,29.99,NNE,24,1.0,9.0,43,0.00,,,0.00,645.0,meteohub,2013-02-10 20:48:00,
2013-02-10 12:53:00,58.5,34.9,29.99,SE,128,5.0,7.0,41,0.00,,,0.00,647.0,meteohub,2013-02-10 20:53:00,
2013-02-10 12:58:00,58.5,34.2,29.98,ESE,119,2.0,6.0,40,0.00,,,0.00,640.0,meteohub,2013-02-10 20:58:00,
2013-02-10 13:03:00,58.3,35.2,29.99,SE,138,1.0,8.0,42,0.00,,,0.00,638.0,meteohub,2013-02-10 21:03:00,
2013-02-10 13:08:00,59.7,36.0,29.98,ESE,113,4.0,8.0,41,0.00,,,0.00,635.0,meteohub,2013-02-10 21:08:00,
2013-02-10 13:13:00,59.7,34.7,29.99,NNW,338,0.0,8.0,39,0.00,,,0.00,629.0,meteohub,2013-02-10 21:13:00,
2013-02-10 13:18:00,58.8,34.5,29.98,NE,53,5.0,6.0,40,0.00,,,0.00,624.0,meteohub,2013-02-10 21:18:00,
2013-02-10 13:23:00,59.4,35.1,29.98,NE,42,3.0,10.0,40,0.00,,,0.00,619.0,meteohub,2013-02-10 21:23:00,
2013-02-10 13:28:00,60.1,35.6,29.98,SSW,211,0.0,10.0,40,0.00,,,0.00,613.0,meteohub,2013-02-10 21:28:00,
2013-02-10 13:33:00,61.0,37.0,29.98,SW,226,2.0,7.0,41,0.00,,,0.00,612.0,meteohub,2013-02-10 21:33:00,
2013-02-10 13:38:00,60.4,34.7,29.98,NW,315,6.0,6.0,38,0.00,,,0.00,605.0,meteohub,2013-02-10 21:38:00,
2013-02-10 13:43:00,60.4,36.0,29.97,SW,232,1.0,6.0,40,0.00,,,0.00,598.0,meteohub,2013-02-10 21:43:00,
2013-02-10 13:48:00,61.3,41.5,29.97,South,175,1.0,7.0,48,0.00,,,0.00,591.0,meteohub,2013-02-10 21:48:00,
2013-02-10 13:53:00,59.5,37.0,29.97,SSE,148,1.0,7.0,43,0.00,,,0.00,584.0,meteohub,2013-02-10 21:53:00,
2013-02-10 13:58:00,60.4,41.7,29.97,SSE,158,2.0,5.0,50,0.00,,,0.00,578.0,meteohub,2013-02-10 21:58:00,
2013-02-10 14:03:00,59.9,41.7,29.96,WNW,302,3.0,10.0,51,0.00,,,0.00,570.0,meteohub,2013-02-10 22:03:00,
2013-02-10 14:08:00,59.7,37.2,29.96,NW,324,5.0,10.0,43,0.00,,,0.00,563.0,meteohub,2013-02-10 22:08:00,
2013-02-10 14:13:00,60.1,35.1,29.96,NNW,340,1.0,10.0,39,0.00,,,0.00,554.0,meteohub,2013-02-10 22:13:00,
2013-02-10 14:18:00,60.1,35.6,29.96,NW,317,1.0,7.0,40,0.00,,,0.00,547.0,meteohub,2013-02-10 22:18:00,
2013-02-10 14:23:00,61.9,36.0,29.96,ENE,70,2.0,7.0,38,0.00,,,0.00,534.0,meteohub,2013-02-10 22:23:00,
2013-02-10 14:28:00,60.3,42.6,29.96,WNW,299,3.0,7.0,52,0.00,,,0.00,527.0,meteohub,2013-02-10 22:28:00,
2013-02-10 14:33:00,59.4,42.8,29.96,West,275,2.0,8.0,54,0.00,,,0.00,513.0,meteohub,2013-02-10 22:33:00,
2013-02-10 14:38:00,59.4,43.2,29.96,WNW,284,6.0,11.0,55,0.00,,,0.00,499.0,meteohub,2013-02-10 22:38:00,
2013-02-10 14:43:00,59.0,42.8,29.96,West,262,3.0,11.0,55,0.00,,,0.00,489.0,meteohub,2013-02-10 22:43:00,
2013-02-10 14:48:00,58.5,43.3,29.96,WSW,252,1.0,11.0,57,0.00,,,0.00,478.0,meteohub,2013-02-10 22:48:00,
2013-02-10 14:53:00,57.9,43.2,29.96,WNW,292,3.0,9.0,58,0.00,,,0.00,466.0,meteohub,2013-02-10 22:53:00,
2013-02-10 14:58:00,57.9,44.1,29.96,West,281,3.0,11.0,60,0.00,,,0.00,452.0,meteohub,2013-02-10 22:58:00,
2013-02-10 15:03:00,56.7,44.2,29.96,WSW,244,6.0,11.0,63,0.00,,,0.00,441.0,meteohub,2013-02-10 23:03:00,
2013-02-10 15:08:00,56.1,44.1,29.96,NW,311,3.0,11.0,64,0.00,,,0.00,429.0,meteohub,2013-02-10 23:08:00,
2013-02-10 15:13:00,56.1,44.1,29.96,West,267,1.0,14.0,64,0.00,,,0.00,415.0,meteohub,2013-02-10 23:13:00,
2013-02-10 15:18:00,56.3,43.5,29.96,WNW,289,2.0,14.0,62,0.00,,,0.00,403.0,meteohub,2013-02-10 23:18:00,
2013-02-10 15:23:00,55.8,43.3,29.97,SW,224,3.0,13.0,63,0.00,,,0.00,387.0,meteohub,2013-02-10 23:23:00,
2013-02-10 15:28:00,55.8,43.3,29.97,SSW,197,1.0,11.0,63,0.00,,,0.00,373.0,meteohub,2013-02-10 23:28:00,
2013-02-10 15:33:00,55.2,44.1,29.97,SW,236,9.0,12.0,66,0.00,,,0.00,355.0,meteohub,2013-02-10 23:33:00,
2013-02-10 15:38:00,55.0,45.1,29.97,NW,321,3.0,12.0,69,0.00,,,0.00,343.0,meteohub,2013-02-10 23:38:00,
2013-02-10 15:43:00,55.0,44.2,29.97,SW,218,2.0,12.0,67,0.00,,,0.00,330.0,meteohub,2013-02-10 23:43:00,
2013-02-10 15:49:00,54.3,44.4,29.97,WNW,294,4.0,12.0,69,0.00,,,0.00,313.0,meteohub,2013-02-10 23:49:00,
2013-02-10 15:54:00,54.3,44.8,29.97,West,281,2.0,12.0,70,0.00,,,0.00,299.0,meteohub,2013-02-10 23:54:00,
2013-02-10 15:59:00,54.1,44.6,29.97,West,272,3.0,11.0,70,0.00,,,0.00,281.0,meteohub,2013-02-10 23:59:00,
2013-02-10 16:04:00,54.3,44.4,29.97,NW,308,2.0,11.0,69,0.00,,,0.00,262.0,meteohub,2013-02-11 00:04:00,
2013-02-10 16:09:00,54.7,44.8,29.97,SW,235,3.0,11.0,69,0.00,,,0.00,244.0,meteohub,2013-02-11 00:09:00,
2013-02-10 16:14:00,54.9,44.4,29.97,WNW,297,2.0,11.0,68,0.00,,,0.00,229.0,meteohub,2013-02-11 00:14:00,
2013-02-10 16:19:00,55.0,44.6,29.97,NW,314,1.0,7.0,68,0.00,,,0.00,209.0,meteohub,2013-02-11 00:19:00,
2013-02-10 16:23:00,55.4,44.2,29.97,West,260,2.0,6.0,66,0.00,,,0.00,190.0,meteohub,2013-02-11 00:23:00,
2013-02-10 16:28:00,55.4,44.6,29.97,SW,232,4.0,6.0,67,0.00,,,0.00,169.0,meteohub,2013-02-11 00:28:00,
2013-02-10 16:33:00,54.5,43.7,29.97,SSW,194,1.0,5.0,67,0.00,,,0.00,149.0,meteohub,2013-02-11 00:33:00,
2013-02-10 16:38:00,53.8,44.2,29.97,SW,219,4.0,7.0,70,0.00,,,0.00,130.0,meteohub,2013-02-11 00:38:00,
2013-02-10 16:43:00,53.6,43.7,29.97,NW,306,2.0,8.0,69,0.00,,,0.00,111.0,meteohub,2013-02-11 00:43:00,
2013-02-10 16:48:00,54.0,44.1,29.97,WNW,286,0.0,8.0,69,0.00,,,0.00,97.0,meteohub,2013-02-11 00:48:00,
2013-02-10 16:54:00,53.8,45.0,29.97,NW,304,1.0,8.0,72,0.00,,,0.00,79.0,meteohub,2013-02-11 00:54:00,
2013-02-10 16:59:00,53.6,44.4,29.97,WNW,288,0.0,6.0,71,0.00,,,0.00,65.0,meteohub,2013-02-11 00:59:00,
2013-02-10 17:04:00,53.1,43.5,29.97,SW,226,3.0,7.0,70,0.00,,,0.00,53.0,meteohub,2013-02-11 01:04:00,
2013-02-10 17:09:00,52.9,43.7,29.97,WSW,242,0.0,7.0,71,0.00,,,0.00,39.0,meteohub,2013-02-11 01:09:00,
2013-02-10 17:14:00,52.7,43.5,29.96,West,259,0.0,7.0,71,0.00,,,0.00,30.0,meteohub,2013-02-11 01:14:00,
2013-02-10 17:19:00,52.3,43.2,29.97,West,259,0.0,5.0,71,0.00,,,0.00,23.0,meteohub,2013-02-11 01:19:00,
2013-02-10 17:24:00,52.5,42.6,29.97,West,268,1.0,5.0,69,0.00,,,0.00,19.0,meteohub,2013-02-11 01:24:00,
2013-02-10 17:29:00,52.0,41.7,29.97,WNW,283,0.0,5.0,68,0.00,,,0.00,18.0,meteohub,2013-02-11 01:29:00,
2013-02-10 17:34:00,51.6,39.9,29.97,WNW,292,6.0,6.0,64,0.00,,,0.00,14.0,meteohub,2013-02-11 01:34:00,
2013-02-10 17:38:00,51.4,39.2,29.97,West,276,4.0,6.0,63,0.00,,,0.00,11.0,meteohub,2013-02-11 01:38:00,
2013-02-10 17:43:00,51.1,39.4,29.97,WSW,252,1.0,8.0,64,0.00,,,0.00,7.0,meteohub,2013-02-11 01:43:00,
2013-02-10 17:48:00,50.7,39.4,29.97,WSW,244,0.0,9.0,65,0.00,,,0.00,5.0,meteohub,2013-02-11 01:48:00,
2013-02-10 17:53:00,50.5,39.9,29.97,WSW,247,2.0,9.0,67,0.00,,,0.00,0.0,meteohub,2013-02-11 01:53:00,
2013-02-10 17:59:00,50.4,40.3,29.97,SW,236,1.0,4.0,68,0.00,,,0.00,0.0,meteohub,2013-02-11 01:59:00,
2013-02-10 18:04:00,50.0,40.3,29.97,SW,234,1.0,4.0,69,0.00,,,0.00,0.0,meteohub,2013-02-11 02:04:00,
2013-02-10 18:09:00,50.0,39.9,29.97,SW,223,1.0,3.0,68,0.00,,,0.00,0.0,meteohub,2013-02-11 02:09:00,
2013-02-10 18:14:00,49.8,39.4,29.97,WNW,292,0.0,4.0,67,0.00,,,0.00,0.0,meteohub,2013-02-11 02:14:00,
2013-02-10 18:19:00,49.6,39.6,29.98,WNW,297,1.0,4.0,68,0.00,,,0.00,0.0,meteohub,2013-02-11 02:19:00,
2013-02-10 18:24:00,49.6,38.7,29.98,North,350,1.0,4.0,66,0.00,,,0.00,0.0,meteohub,2013-02-11 02:24:00,
2013-02-10 18:29:00,49.8,38.8,29.98,West,270,1.0,3.0,66,0.00,,,0.00,0.0,meteohub,2013-02-11 02:29:00,
2013-02-10 18:34:00,49.8,39.4,29.98,WNW,303,3.0,5.0,67,0.00,,,0.00,0.0,meteohub,2013-02-11 02:34:00,
2013-02-10 18:39:00,49.6,40.6,29.98,WSW,253,1.0,5.0,71,0.00,,,0.00,0.0,meteohub,2013-02-11 02:39:00,
2013-02-10 18:44:00,49.6,41.7,29.98,WSW,242,0.0,5.0,74,0.00,,,0.00,0.0,meteohub,2013-02-11 02:44:00,
2013-02-10 18:49:00,50.0,42.8,29.98,WSW,242,0.0,5.0,76,0.00,,,0.00,0.0,meteohub,2013-02-11 02:49:00,
2013-02-10 18:54:00,49.6,43.0,29.98,WSW,242,0.0,3.0,78,0.00,,,0.00,0.0,meteohub,2013-02-11 02:54:00,
2013-02-10 18:59:00,49.8,43.5,29.98,WSW,242,0.0,2.0,79,0.00,,,0.00,0.0,meteohub,2013-02-11 02:59:00,
2013-02-10 19:04:00,49.3,43.7,29.98,West,268,0.0,2.0,81,0.00,,,0.00,0.0,meteohub,2013-02-11 03:04:00,
2013-02-10 19:09:00,48.7,43.2,29.98,West,279,0.0,2.0,81,0.00,,,0.00,0.0,meteohub,2013-02-11 03:09:00,
2013-02-10 19:14:00,48.7,42.8,29.99,West,271,0.0,2.0,80,0.00,,,0.00,0.0,meteohub,2013-02-11 03:14:00,
2013-02-10 19:19:00,48.6,43.0,29.99,West,271,0.0,3.0,81,0.00,,,0.00,0.0,meteohub,2013-02-11 03:19:00,
2013-02-10 19:24:00,48.6,42.6,29.99,West,271,1.0,3.0,80,0.00,,,0.00,0.0,meteohub,2013-02-11 03:24:00,
2013-02-10 19:29:00,48.7,40.1,29.99,WNW,300,2.0,3.0,72,0.00,,,0.00,0.0,meteohub,2013-02-11 03:29:00,
2013-02-10 19:34:00,49.1,39.4,29.98,West,281,2.0,4.0,69,0.00,,,0.00,0.0,meteohub,2013-02-11 03:34:00,
2013-02-10 19:39:00,49.3,38.8,29.98,WNW,299,3.0,5.0,67,0.00,,,0.00,0.0,meteohub,2013-02-11 03:39:00,
2013-02-10 19:44:00,49.3,37.9,29.99,WNW,283,3.0,5.0,65,0.00,,,0.00,0.0,meteohub,2013-02-11 03:44:00,
2013-02-10 19:49:00,49.5,36.5,29.98,WNW,290,1.0,6.0,61,0.00,,,0.00,0.0,meteohub,2013-02-11 03:49:00,
2013-02-10 19:54:00,49.5,38.1,29.98,NW,325,0.0,6.0,65,0.00,,,0.00,0.0,meteohub,2013-02-11 03:54:00,
2013-02-10 19:59:00,48.9,39.9,29.99,WNW,294,0.0,5.0,71,0.00,,,0.00,0.0,meteohub,2013-02-11 03:59:00,
2013-02-10 20:04:00,48.6,41.0,29.98,SSE,152,0.0,5.0,75,0.00,,,0.00,0.0,meteohub,2013-02-11 04:04:00,
2013-02-10 20:09:00,48.0,43.3,29.98,South,170,0.0,2.0,84,0.00,,,0.00,0.0,meteohub,2013-02-11 04:09:00,
2013-02-10 20:14:00,47.7,43.3,29.98,SSE,150,1.0,2.0,85,0.00,,,0.00,0.0,meteohub,2013-02-11 04:14:00,
2013-02-10 20:19:00,47.7,43.3,29.99,SSE,163,0.0,2.0,85,0.00,,,0.00,0.0,meteohub,2013-02-11 04:19:00,
2013-02-10 20:24:00,47.7,43.3,29.98,SSW,209,0.0,2.0,85,0.00,,,0.00,0.0,meteohub,2013-02-11 04:24:00,
2013-02-10 20:29:00,47.5,43.2,29.99,SSW,209,0.0,2.0,85,0.00,,,0.00,0.0,meteohub,2013-02-11 04:29:00,
2013-02-10 20:34:00,47.5,42.8,29.99,SSW,209,0.0,2.0,84,0.00,,,0.00,0.0,meteohub,2013-02-11 04:34:00,
2013-02-10 20:39:00,47.1,42.6,29.99,SSW,209,0.0,1.0,84,0.00,,,0.00,0.0,meteohub,2013-02-11 04:39:00,
2013-02-10 20:44:00,47.3,42.8,29.99,SSW,209,0.0,0.0,84,0.00,,,0.00,0.0,meteohub,2013-02-11 04:44:00,
2013-02-10 20:49:00,47.5,42.6,29.99,SSW,206,0.0,0.0,83,0.00,,,0.00,0.0,meteohub,2013-02-11 04:49:00,
2013-02-10 20:54:00,47.7,42.8,29.99,SSW,206,0.0,1.0,83,0.00,,,0.00,0.0,meteohub,2013-02-11 04:54:00,
2013-02-10 20:59:00,47.5,42.3,29.99,SE,126,0.0,1.0,82,0.00,,,0.00,0.0,meteohub,2013-02-11 04:59:00,
2013-02-10 21:00:00,47.5,42.3,29.99,SE,125,0.0,1.0,82,0.00,,,0.00,0.0,meteohub,2013-02-11 05:00:00,
2013-02-10 21:05:00,47.5,41.9,29.99,SSW,213,0.0,2.0,81,0.00,,,0.00,0.0,meteohub,2013-02-11 05:05:00,
2013-02-10 21:10:00,47.7,41.7,29.99,SW,219,0.0,2.0,80,0.00,,,0.00,0.0,meteohub,2013-02-11 05:10:00,
2013-02-10 21:15:00,47.7,41.7,29.99,SW,223,1.0,2.0,80,0.00,,,0.00,0.0,meteohub,2013-02-11 05:15:00,
2013-02-10 21:20:00,47.7,41.7,29.99,SW,234,0.0,2.0,80,0.00,,,0.00,0.0,meteohub,2013-02-11 05:20:00,
2013-02-10 21:25:00,47.5,41.4,29.99,SW,232,0.0,2.0,79,0.00,,,0.00,0.0,meteohub,2013-02-11 05:25:00,
2013-02-10 21:30:00,47.5,41.0,29.99,South,188,0.0,2.0,78,0.00,,,0.00,0.0,meteohub,2013-02-11 05:30:00,
2013-02-10 21:36:00,47.5,41.0,29.99,South,186,0.0,3.0,78,0.00,,,0.00,0.0,meteohub,2013-02-11 05:36:00,
2013-02-10 21:41:00,47.7,41.2,29.99,SW,221,1.0,3.0,78,0.00,,,0.00,0.0,meteohub,2013-02-11 05:41:00,
2013-02-10 21:46:00,47.7,41.2,29.99,SW,223,3.0,3.0,78,0.00,,,0.00,0.0,meteohub,2013-02-11 05:46:00,
2013-02-10 21:51:00,47.1,40.6,29.99,SSW,213,1.0,3.0,78,0.00,,,0.00,0.0,meteohub,2013-02-11 05:51:00,
2013-02-10 21:56:00,47.3,40.8,29.99,SW,227,0.0,3.0,78,0.00,,,0.00,0.0,meteohub,2013-02-11 05:56:00,
2013-02-10 22:01:00,47.3,40.8,29.99,SSW,212,0.0,3.0,78,0.00,,,0.00,0.0,meteohub,2013-02-11 06:01:00,
2013-02-10 22:06:00,47.3,40.8,29.99,WSW,254,1.0,3.0,78,0.00,,,0.00,0.0,meteohub,2013-02-11 06:06:00,
2013-02-10 22:11:00,47.3,41.2,29.99,West,268,0.0,6.0,79,0.00,,,0.00,0.0,meteohub,2013-02-11 06:11:00,
2013-02-10 22:16:00,47.7,41.5,29.99,WNW,292,0.0,6.0,79,0.00,,,0.00,0.0,meteohub,2013-02-11 06:16:00,
2013-02-10 22:21:00,47.3,41.2,29.99,WNW,292,0.0,6.0,79,0.00,,,0.00,0.0,meteohub,2013-02-11 06:21:00,
2013-02-10 22:26:00,46.9,41.4,29.99,WNW,292,0.0,3.0,81,0.00,,,0.00,0.0,meteohub,2013-02-11 06:26:00,
2013-02-10 22:31:00,46.8,41.5,30.00,WSW,242,2.0,2.0,82,0.00,,,0.00,0.0,meteohub,2013-02-11 06:31:00,
2013-02-10 22:36:00,46.8,41.9,30.00,SW,221,4.0,4.0,83,0.00,,,0.00,0.0,meteohub,2013-02-11 06:36:00,
2013-02-10 22:41:00,46.6,42.1,30.00,SSW,211,3.0,4.0,84,0.00,,,0.00,0.0,meteohub,2013-02-11 06:41:00,
2013-02-10 22:46:00,46.6,42.1,29.99,SW,226,2.0,4.0,84,0.00,,,0.00,0.0,meteohub,2013-02-11 06:46:00,
2013-02-10 22:51:00,46.6,42.3,29.99,WSW,248,2.0,4.0,85,0.00,,,0.00,0.0,meteohub,2013-02-11 06:51:00,
2013-02-10 22:56:00,46.2,41.9,30.00,SW,236,1.0,4.0,85,0.00,,,0.00,0.0,meteohub,2013-02-11 06:56:00,
2013-02-10 23:01:00,46.2,42.6,30.00,SW,229,2.0,4.0,87,0.00,,,0.00,0.0,meteohub,2013-02-11 07:01:00,
2013-02-10 23:06:00,46.2,42.6,30.00,SW,221,3.0,4.0,87,0.00,,,0.00,0.0,meteohub,2013-02-11 07:06:00,
2013-02-10 23:11:00,46.0,42.6,30.00,WSW,252,2.0,4.0,88,0.00,,,0.00,0.0,meteohub,2013-02-11 07:11:00,
2013-02-10 23:16:00,46.0,43.0,30.00,WSW,244,5.0,5.0,89,0.00,,,0.00,0.0,meteohub,2013-02-11 07:16:00,
2013-02-10 23:21:00,46.0,43.3,30.00,West,269,2.0,5.0,90,0.00,,,0.00,0.0,meteohub,2013-02-11 07:21:00,
2013-02-10 23:26:00,46.4,43.9,30.00,WSW,250,3.0,5.0,91,0.00,,,0.00,0.0,meteohub,2013-02-11 07:26:00,
2013-02-10 23:31:00,46.2,43.5,30.00,SW,236,0.0,5.0,90,0.00,,,0.00,0.0,meteohub,2013-02-11 07:31:00,
2013-02-10 23:36:00,46.4,44.2,30.00,WSW,252,2.0,5.0,92,0.00,,,0.00,0.0,meteohub,2013-02-11 07:36:00,
2013-02-10 23:41:00,46.6,44.4,30.00,WNW,286,0.0,4.0,92,0.00,,,0.00,0.0,meteohub,2013-02-11 07:41:00,
2013-02-10 23:46:00,46.8,44.8,30.00,WNW,288,3.0,6.0,93,0.00,,,0.00,0.0,meteohub,2013-02-11 07:46:00,
2013-02-10 23:51:00,46.9,44.8,30.00,WNW,299,0.0,6.0,92,0.00,,,0.00,0.0,meteohub,2013-02-11 07:51:00,
2013-02-10 23:56:00,46.8,44.2,30.00,WNW,299,0.0,6.0,91,0.00,,,0.00,0.0,meteohub,2013-02-11 07:56:00,